sensor_id;sensor_type;location;lat;lon;timestamp;temperature;humidity
7654;DHT22;3869;48.406;10.774;2022-08-01T00:00:54;19.80;99.90
7654;DHT22;3869;48.406;10.774;2022-08-01T00:03:22;19.80;99.90
7654;DHT22;3869;48.406;10.774;2022-08-01T00:05:50;19.70;99.90
7654;DHT22;3869;48.406;10.774;2022-08-01T00:08:18;19.70;99.90
7654;DHT22;3869;48.406;10.774;2022-08-01T00:10:46;19.70;99.90
7654;DHT22;3869;48.406;10.774;2022-08-01T00:13:16;19.60;99.90
7654;DHT22;3869;48.406;10.774;2022-08-01T00:15:44;19.60;99.90
7654;DHT22;3869;48.406;10.774;2022-08-01T00:18:20;19.60;99.90
7654;DHT22;3869;48.406;10.774;2022-08-01T00:20:48;19.50;99.90
7654;DHT22;3869;48.406;10.774;2022-08-01T00:23:16;19.50;99.90
7654;DHT22;3869;48.406;10.774;2022-08-01T00:25:44;19.50;99.90
7654;DHT22;3869;48.406;10.774;2022-08-01T00:28:12;19.50;99.90
7654;DHT22;3869;48.406;10.774;2022-08-01T00:30:41;19.50;99.90
7654;DHT22;3869;48.406;10.774;2022-08-01T00:33:09;19.50;99.90
7654;DHT22;3869;48.406;10.774;2022-08-01T00:35:37;19.50;99.90
7654;DHT22;3869;48.406;10.774;2022-08-01T00:38:05;19.50;99.90
7654;DHT22;3869;48.406;10.774;2022-08-01T00:40:33;19.50;99.90
7654;DHT22;3869;48.406;10.774;2022-08-01T00:43:01;19.50;99.90
7654;DHT22;3869;48.406;10.774;2022-08-01T00:45:29;19.50;99.90
7654;DHT22;3869;48.406;10.774;2022-08-01T00:47:58;19.60;99.90
7654;DHT22;3869;48.406;10.774;2022-08-01T00:50:26;19.50;99.90
7654;DHT22;3869;48.406;10.774;2022-08-01T00:52:55;19.50;99.90
7654;DHT22;3869;48.406;10.774;2022-08-01T00:55:23;19.50;99.90
7654;DHT22;3869;48.406;10.774;2022-08-01T00:57:51;19.50;99.90
7654;DHT22;3869;48.406;10.774;2022-08-01T01:00:33;19.40;99.90
7654;DHT22;3869;48.406;10.774;2022-08-01T01:03:21;19.40;99.90
7654;DHT22;3869;48.406;10.774;2022-08-01T01:06:25;19.40;99.90
7654;DHT22;3869;48.406;10.774;2022-08-01T01:09:02;19.30;99.90
7654;DHT22;3869;48.406;10.774;2022-08-01T01:11:40;19.30;99.90
7654;DHT22;3869;48.406;10.774;2022-08-01T01:14:18;19.20;99.90
7654;DHT22;3869;48.406;10.774;2022-08-01T01:16:49;19.20;99.90
7654;DHT22;3869;48.406;10.774;2022-08-01T01:19:24;19.20;99.90
7654;DHT22;3869;48.406;10.774;2022-08-01T01:22:25;19.10;99.90
7654;DHT22;3869;48.406;10.774;2022-08-01T01:25:08;19.20;99.90
7654;DHT22;3869;48.406;10.774;2022-08-01T01:27:45;19.10;99.90
7654;DHT22;3869;48.406;10.774;2022-08-01T01:30:18;19.10;99.90
7654;DHT22;3869;48.406;10.774;2022-08-01T01:32:48;19.10;99.90
7654;DHT22;3869;48.406;10.774;2022-08-01T01:35:21;19.10;99.90
7654;DHT22;3869;48.406;10.774;2022-08-01T01:37:54;19.10;99.90
7654;DHT22;3869;48.406;10.774;2022-08-01T01:40:24;19.10;99.90
7654;DHT22;3869;48.406;10.774;2022-08-01T01:42:55;19.10;99.90
7654;DHT22;3869;48.406;10.774;2022-08-01T01:45:45;19.10;99.90
7654;DHT22;3869;48.406;10.774;2022-08-01T01:48:19;19.00;99.90
7654;DHT22;3869;48.406;10.774;2022-08-01T01:50:49;19.00;99.90
7654;DHT22;3869;48.406;10.774;2022-08-01T01:53:21;19.00;99.90
7654;DHT22;3869;48.406;10.774;2022-08-01T01:55:52;19.00;99.90
7654;DHT22;3869;48.406;10.774;2022-08-01T01:58:23;18.90;99.90
7654;DHT22;3869;48.406;10.774;2022-08-01T02:00:56;18.90;99.90
7654;DHT22;3869;48.406;10.774;2022-08-01T02:03:28;18.90;99.90
7654;DHT22;3869;48.406;10.774;2022-08-01T02:05:58;18.80;99.90
7654;DHT22;3869;48.406;10.774;2022-08-01T02:08:28;18.90;99.90
7654;DHT22;3869;48.406;10.774;2022-08-01T02:10:58;18.80;99.90
7654;DHT22;3869;48.406;10.774;2022-08-01T02:13:46;18.80;99.90
7654;DHT22;3869;48.406;10.774;2022-08-01T02:16:17;18.70;99.90
7654;DHT22;3869;48.406;10.774;2022-08-01T02:18:46;18.70;99.90
7654;DHT22;3869;48.406;10.774;2022-08-01T02:21:19;18.70;99.90
7654;DHT22;3869;48.406;10.774;2022-08-01T02:23:50;18.70;99.90
7654;DHT22;3869;48.406;10.774;2022-08-01T02:26:19;18.60;99.90
7654;DHT22;3869;48.406;10.774;2022-08-01T02:28:54;18.60;99.90
7654;DHT22;3869;48.406;10.774;2022-08-01T02:31:25;18.60;99.90
7654;DHT22;3869;48.406;10.774;2022-08-01T02:33:58;18.60;99.90
7654;DHT22;3869;48.406;10.774;2022-08-01T02:36:30;18.70;99.90
7654;DHT22;3869;48.406;10.774;2022-08-01T02:39:01;18.60;99.90
7654;DHT22;3869;48.406;10.774;2022-08-01T02:41:30;18.60;99.90
7654;DHT22;3869;48.406;10.774;2022-08-01T02:44:04;18.60;99.90
7654;DHT22;3869;48.406;10.774;2022-08-01T02:46:37;18.60;99.90
7654;DHT22;3869;48.406;10.774;2022-08-01T02:49:08;18.60;99.90
7654;DHT22;3869;48.406;10.774;2022-08-01T02:51:37;18.50;99.90
7654;DHT22;3869;48.406;10.774;2022-08-01T02:54:08;18.50;99.90
7654;DHT22;3869;48.406;10.774;2022-08-01T02:56:36;18.50;99.90
7654;DHT22;3869;48.406;10.774;2022-08-01T02:59:10;18.50;99.90
7654;DHT22;3869;48.406;10.774;2022-08-01T03:01:42;18.60;99.90
7654;DHT22;3869;48.406;10.774;2022-08-01T03:04:14;18.50;99.90
7654;DHT22;3869;48.406;10.774;2022-08-01T03:06:44;18.50;99.90
7654;DHT22;3869;48.406;10.774;2022-08-01T03:09:14;18.40;99.90
7654;DHT22;3869;48.406;10.774;2022-08-01T03:11:43;18.40;99.90
7654;DHT22;3869;48.406;10.774;2022-08-01T03:14:14;18.50;99.90
7654;DHT22;3869;48.406;10.774;2022-08-01T03:16:44;18.50;99.90
7654;DHT22;3869;48.406;10.774;2022-08-01T03:19:14;18.50;99.90
7654;DHT22;3869;48.406;10.774;2022-08-01T03:21:43;18.40;99.90
7654;DHT22;3869;48.406;10.774;2022-08-01T03:24:12;18.30;99.90
7654;DHT22;3869;48.406;10.774;2022-08-01T03:26:41;18.30;99.90
7654;DHT22;3869;48.406;10.774;2022-08-01T03:29:14;18.30;99.90
7654;DHT22;3869;48.406;10.774;2022-08-01T03:31:45;18.30;99.90
7654;DHT22;3869;48.406;10.774;2022-08-01T03:34:14;18.30;99.90
7654;DHT22;3869;48.406;10.774;2022-08-01T03:36:46;18.30;99.90
7654;DHT22;3869;48.406;10.774;2022-08-01T03:39:16;18.30;99.90
7654;DHT22;3869;48.406;10.774;2022-08-01T03:41:50;18.30;99.90
7654;DHT22;3869;48.406;10.774;2022-08-01T03:44:25;18.40;99.90
7654;DHT22;3869;48.406;10.774;2022-08-01T03:46:59;18.50;99.90
7654;DHT22;3869;48.406;10.774;2022-08-01T03:49:30;18.50;99.90
7654;DHT22;3869;48.406;10.774;2022-08-01T03:52:02;18.50;99.90
7654;DHT22;3869;48.406;10.774;2022-08-01T03:54:34;18.50;99.90
7654;DHT22;3869;48.406;10.774;2022-08-01T03:57:04;18.50;99.90
7654;DHT22;3869;48.406;10.774;2022-08-01T03:59:34;18.50;99.90
7654;DHT22;3869;48.406;10.774;2022-08-01T04:02:06;18.50;99.90
7654;DHT22;3869;48.406;10.774;2022-08-01T04:04:35;18.40;99.90
7654;DHT22;3869;48.406;10.774;2022-08-01T04:07:03;18.40;99.90
7654;DHT22;3869;48.406;10.774;2022-08-01T04:09:33;18.40;99.90
7654;DHT22;3869;48.406;10.774;2022-08-01T04:12:01;18.40;99.90
7654;DHT22;3869;48.406;10.774;2022-08-01T04:14:38;18.40;99.90
7654;DHT22;3869;48.406;10.774;2022-08-01T04:17:07;18.40;99.90
7654;DHT22;3869;48.406;10.774;2022-08-01T04:19:35;18.40;99.90
7654;DHT22;3869;48.406;10.774;2022-08-01T04:22:04;18.40;99.90
7654;DHT22;3869;48.406;10.774;2022-08-01T04:24:34;18.40;99.90
7654;DHT22;3869;48.406;10.774;2022-08-01T04:27:06;18.40;99.90
7654;DHT22;3869;48.406;10.774;2022-08-01T04:29:37;18.40;99.90
7654;DHT22;3869;48.406;10.774;2022-08-01T04:32:09;18.40;99.90
7654;DHT22;3869;48.406;10.774;2022-08-01T04:34:39;18.40;99.90
7654;DHT22;3869;48.406;10.774;2022-08-01T04:37:09;18.40;99.90
7654;DHT22;3869;48.406;10.774;2022-08-01T04:39:40;18.40;99.90
7654;DHT22;3869;48.406;10.774;2022-08-01T04:42:16;18.40;99.90
7654;DHT22;3869;48.406;10.774;2022-08-01T04:44:55;18.40;99.90
7654;DHT22;3869;48.406;10.774;2022-08-01T04:47:25;18.40;99.90
7654;DHT22;3869;48.406;10.774;2022-08-01T04:49:53;18.50;99.90
7654;DHT22;3869;48.406;10.774;2022-08-01T04:52:23;18.50;99.90
7654;DHT22;3869;48.406;10.774;2022-08-01T04:54:51;18.50;99.90
7654;DHT22;3869;48.406;10.774;2022-08-01T04:57:19;18.60;99.90
7654;DHT22;3869;48.406;10.774;2022-08-01T04:59:47;18.60;99.90
7654;DHT22;3869;48.406;10.774;2022-08-01T05:02:17;18.70;99.90
7654;DHT22;3869;48.406;10.774;2022-08-01T05:04:47;18.70;99.90
7654;DHT22;3869;48.406;10.774;2022-08-01T05:07:15;18.70;99.90
7654;DHT22;3869;48.406;10.774;2022-08-01T05:09:43;18.70;99.90
7654;DHT22;3869;48.406;10.774;2022-08-01T05:12:13;18.80;99.90
7654;DHT22;3869;48.406;10.774;2022-08-01T05:14:41;18.80;99.90
7654;DHT22;3869;48.406;10.774;2022-08-01T05:17:09;18.90;99.90
7654;DHT22;3869;48.406;10.774;2022-08-01T05:19:38;19.00;99.90
7654;DHT22;3869;48.406;10.774;2022-08-01T05:22:08;19.10;99.90
7654;DHT22;3869;48.406;10.774;2022-08-01T05:24:39;19.10;99.90
7654;DHT22;3869;48.406;10.774;2022-08-01T05:27:08;19.10;99.90
7654;DHT22;3869;48.406;10.774;2022-08-01T05:29:39;19.20;99.90
7654;DHT22;3869;48.406;10.774;2022-08-01T05:32:10;19.20;99.90
7654;DHT22;3869;48.406;10.774;2022-08-01T05:34:38;19.30;99.90
7654;DHT22;3869;48.406;10.774;2022-08-01T05:37:08;19.40;99.90
7654;DHT22;3869;48.406;10.774;2022-08-01T05:39:36;19.50;99.90
7654;DHT22;3869;48.406;10.774;2022-08-01T05:42:04;19.50;99.90
7654;DHT22;3869;48.406;10.774;2022-08-01T05:44:33;19.60;99.90
7654;DHT22;3869;48.406;10.774;2022-08-01T05:47:02;19.70;99.90
7654;DHT22;3869;48.406;10.774;2022-08-01T05:49:30;19.80;99.90
7654;DHT22;3869;48.406;10.774;2022-08-01T05:51:58;19.90;99.90
7654;DHT22;3869;48.406;10.774;2022-08-01T05:54:30;20.00;99.90
7654;DHT22;3869;48.406;10.774;2022-08-01T05:56:58;20.10;99.90
7654;DHT22;3869;48.406;10.774;2022-08-01T05:59:28;20.10;99.90
7654;DHT22;3869;48.406;10.774;2022-08-01T06:01:56;20.20;99.90
7654;DHT22;3869;48.406;10.774;2022-08-01T06:04:24;20.30;99.90
7654;DHT22;3869;48.406;10.774;2022-08-01T06:06:52;20.40;99.90
7654;DHT22;3869;48.406;10.774;2022-08-01T06:09:20;20.50;99.90
7654;DHT22;3869;48.406;10.774;2022-08-01T06:11:50;20.70;99.90
7654;DHT22;3869;48.406;10.774;2022-08-01T06:14:18;20.80;99.90
7654;DHT22;3869;48.406;10.774;2022-08-01T06:16:46;20.80;99.90
7654;DHT22;3869;48.406;10.774;2022-08-01T06:19:14;20.90;99.80
7654;DHT22;3869;48.406;10.774;2022-08-01T06:21:42;20.90;99.70
7654;DHT22;3869;48.406;10.774;2022-08-01T06:24:10;21.00;99.70
7654;DHT22;3869;48.406;10.774;2022-08-01T06:26:38;21.10;99.70
7654;DHT22;3869;48.406;10.774;2022-08-01T06:29:07;21.20;99.70
7654;DHT22;3869;48.406;10.774;2022-08-01T06:31:37;21.30;99.70
7654;DHT22;3869;48.406;10.774;2022-08-01T06:34:05;21.40;99.60
7654;DHT22;3869;48.406;10.774;2022-08-01T06:36:33;21.50;99.40
7654;DHT22;3869;48.406;10.774;2022-08-01T06:39:02;21.60;99.50
7654;DHT22;3869;48.406;10.774;2022-08-01T06:41:30;21.70;99.50
7654;DHT22;3869;48.406;10.774;2022-08-01T06:43:58;21.80;99.60
7654;DHT22;3869;48.406;10.774;2022-08-01T06:46:30;21.80;99.20
7654;DHT22;3869;48.406;10.774;2022-08-01T06:49:00;22.00;99.40
7654;DHT22;3869;48.406;10.774;2022-08-01T06:51:28;22.10;99.10
7654;DHT22;3869;48.406;10.774;2022-08-01T06:53:56;22.20;99.40
7654;DHT22;3869;48.406;10.774;2022-08-01T06:56:24;22.30;98.80
7654;DHT22;3869;48.406;10.774;2022-08-01T06:58:52;22.40;98.70
7654;DHT22;3869;48.406;10.774;2022-08-01T07:01:22;22.40;97.90
7654;DHT22;3869;48.406;10.774;2022-08-01T07:03:52;22.40;98.20
7654;DHT22;3869;48.406;10.774;2022-08-01T07:06:22;22.40;98.30
7654;DHT22;3869;48.406;10.774;2022-08-01T07:08:50;22.40;98.20
7654;DHT22;3869;48.406;10.774;2022-08-01T07:11:18;22.40;97.90
7654;DHT22;3869;48.406;10.774;2022-08-01T07:13:46;22.40;98.20
7654;DHT22;3869;48.406;10.774;2022-08-01T07:16:15;22.40;98.40
7654;DHT22;3869;48.406;10.774;2022-08-01T07:18:43;22.40;98.10
7654;DHT22;3869;48.406;10.774;2022-08-01T07:21:12;22.40;97.90
7654;DHT22;3869;48.406;10.774;2022-08-01T07:24:00;22.40;97.80
7654;DHT22;3869;48.406;10.774;2022-08-01T07:26:39;22.50;98.00
7654;DHT22;3869;48.406;10.774;2022-08-01T07:29:21;22.50;98.20
7654;DHT22;3869;48.406;10.774;2022-08-01T07:31:49;22.60;98.00
7654;DHT22;3869;48.406;10.774;2022-08-01T07:34:17;22.60;98.00
7654;DHT22;3869;48.406;10.774;2022-08-01T07:36:46;22.60;98.00
7654;DHT22;3869;48.406;10.774;2022-08-01T07:39:14;22.70;97.90
7654;DHT22;3869;48.406;10.774;2022-08-01T07:41:42;22.80;97.80
7654;DHT22;3869;48.406;10.774;2022-08-01T07:44:30;22.80;98.20
7654;DHT22;3869;48.406;10.774;2022-08-01T07:46:58;22.90;97.90
7654;DHT22;3869;48.406;10.774;2022-08-01T07:49:26;22.90;97.70
7654;DHT22;3869;48.406;10.774;2022-08-01T07:51:56;23.00;97.90
7654;DHT22;3869;48.406;10.774;2022-08-01T07:54:30;23.00;97.80
7654;DHT22;3869;48.406;10.774;2022-08-01T07:56:59;23.10;97.90
7654;DHT22;3869;48.406;10.774;2022-08-01T07:59:28;23.10;97.80
7654;DHT22;3869;48.406;10.774;2022-08-01T08:01:56;23.20;97.70
7654;DHT22;3869;48.406;10.774;2022-08-01T08:04:24;23.20;97.60
7654;DHT22;3869;48.406;10.774;2022-08-01T08:06:52;23.20;97.60
7654;DHT22;3869;48.406;10.774;2022-08-01T08:09:22;23.30;97.70
7654;DHT22;3869;48.406;10.774;2022-08-01T08:11:50;23.30;97.70
7654;DHT22;3869;48.406;10.774;2022-08-01T08:14:18;23.40;97.50
7654;DHT22;3869;48.406;10.774;2022-08-01T08:16:58;23.40;97.30
7654;DHT22;3869;48.406;10.774;2022-08-01T08:19:28;23.50;97.50
7654;DHT22;3869;48.406;10.774;2022-08-01T08:22:05;23.60;97.60
7654;DHT22;3869;48.406;10.774;2022-08-01T08:24:35;23.60;96.90
7654;DHT22;3869;48.406;10.774;2022-08-01T08:27:12;23.60;97.00
7654;DHT22;3869;48.406;10.774;2022-08-01T08:29:41;23.70;97.10
7654;DHT22;3869;48.406;10.774;2022-08-01T08:32:09;23.70;97.10
7654;DHT22;3869;48.406;10.774;2022-08-01T08:34:37;23.80;97.00
7654;DHT22;3869;48.406;10.774;2022-08-01T08:37:05;23.80;96.20
7654;DHT22;3869;48.406;10.774;2022-08-01T08:39:36;23.80;96.20
7654;DHT22;3869;48.406;10.774;2022-08-01T08:42:08;23.90;96.20
7654;DHT22;3869;48.406;10.774;2022-08-01T08:44:36;24.00;95.50
7654;DHT22;3869;48.406;10.774;2022-08-01T08:47:11;23.90;95.50
7654;DHT22;3869;48.406;10.774;2022-08-01T08:49:46;24.10;96.00
7654;DHT22;3869;48.406;10.774;2022-08-01T08:52:15;24.10;95.70
7654;DHT22;3869;48.406;10.774;2022-08-01T08:54:48;24.20;95.50
7654;DHT22;3869;48.406;10.774;2022-08-01T08:57:18;24.20;95.50
7654;DHT22;3869;48.406;10.774;2022-08-01T08:59:47;24.30;95.30
7654;DHT22;3869;48.406;10.774;2022-08-01T09:02:17;24.40;95.30
7654;DHT22;3869;48.406;10.774;2022-08-01T09:04:47;24.40;95.40
7654;DHT22;3869;48.406;10.774;2022-08-01T09:07:15;24.50;95.30
7654;DHT22;3869;48.406;10.774;2022-08-01T09:09:43;24.50;95.10
7654;DHT22;3869;48.406;10.774;2022-08-01T09:12:17;24.60;95.20
7654;DHT22;3869;48.406;10.774;2022-08-01T09:14:47;24.60;94.50
7654;DHT22;3869;48.406;10.774;2022-08-01T09:17:16;24.70;94.80
7654;DHT22;3869;48.406;10.774;2022-08-01T09:19:46;24.80;94.60
7654;DHT22;3869;48.406;10.774;2022-08-01T09:22:15;24.90;94.70
7654;DHT22;3869;48.406;10.774;2022-08-01T09:24:58;24.90;93.40
7654;DHT22;3869;48.406;10.774;2022-08-01T09:27:28;24.90;93.40
7654;DHT22;3869;48.406;10.774;2022-08-01T09:30:08;25.00;94.20
7654;DHT22;3869;48.406;10.774;2022-08-01T09:32:51;25.00;93.70
7654;DHT22;3869;48.406;10.774;2022-08-01T09:35:25;25.00;93.70
7654;DHT22;3869;48.406;10.774;2022-08-01T09:38:15;25.00;93.70
7654;DHT22;3869;48.406;10.774;2022-08-01T09:40:51;25.10;93.80
7654;DHT22;3869;48.406;10.774;2022-08-01T09:43:23;25.10;93.60
7654;DHT22;3869;48.406;10.774;2022-08-01T09:45:53;25.10;93.50
7654;DHT22;3869;48.406;10.774;2022-08-01T09:48:23;25.10;93.70
7654;DHT22;3869;48.406;10.774;2022-08-01T09:50:56;25.10;93.60
7654;DHT22;3869;48.406;10.774;2022-08-01T09:53:44;25.10;93.50
7654;DHT22;3869;48.406;10.774;2022-08-01T09:56:19;25.20;93.20
7654;DHT22;3869;48.406;10.774;2022-08-01T09:58:57;25.20;93.10
7654;DHT22;3869;48.406;10.774;2022-08-01T10:01:37;25.20;93.10
7654;DHT22;3869;48.406;10.774;2022-08-01T10:04:11;25.20;93.30
7654;DHT22;3869;48.406;10.774;2022-08-01T10:06:43;25.30;93.40
7654;DHT22;3869;48.406;10.774;2022-08-01T10:09:12;25.30;93.00
7654;DHT22;3869;48.406;10.774;2022-08-01T10:11:42;25.40;93.00
7654;DHT22;3869;48.406;10.774;2022-08-01T10:14:12;25.60;92.70
7654;DHT22;3869;48.406;10.774;2022-08-01T10:16:45;25.70;93.10
7654;DHT22;3869;48.406;10.774;2022-08-01T10:19:22;25.80;92.60
7654;DHT22;3869;48.406;10.774;2022-08-01T10:21:56;25.90;92.00
7654;DHT22;3869;48.406;10.774;2022-08-01T10:24:28;25.90;92.30
7654;DHT22;3869;48.406;10.774;2022-08-01T10:27:02;26.10;92.80
7654;DHT22;3869;48.406;10.774;2022-08-01T10:29:41;26.10;92.10
7654;DHT22;3869;48.406;10.774;2022-08-01T10:32:24;26.20;91.60
7654;DHT22;3869;48.406;10.774;2022-08-01T10:34:55;26.30;91.20
7654;DHT22;3869;48.406;10.774;2022-08-01T10:37:24;26.30;91.20
7654;DHT22;3869;48.406;10.774;2022-08-01T10:39:54;26.30;90.60
7654;DHT22;3869;48.406;10.774;2022-08-01T10:42:44;26.30;91.60
7654;DHT22;3869;48.406;10.774;2022-08-01T10:45:15;26.50;91.40
7654;DHT22;3869;48.406;10.774;2022-08-01T10:47:48;26.60;91.00
7654;DHT22;3869;48.406;10.774;2022-08-01T10:50:24;26.70;91.10
7654;DHT22;3869;48.406;10.774;2022-08-01T10:53:07;26.60;90.80
7654;DHT22;3869;48.406;10.774;2022-08-01T10:55:46;26.60;90.90
7654;DHT22;3869;48.406;10.774;2022-08-01T10:58:21;26.50;90.40
7654;DHT22;3869;48.406;10.774;2022-08-01T11:01:23;26.30;90.30
7654;DHT22;3869;48.406;10.774;2022-08-01T11:04:04;26.30;90.40
7654;DHT22;3869;48.406;10.774;2022-08-01T11:06:46;26.20;90.70
7654;DHT22;3869;48.406;10.774;2022-08-01T11:09:22;26.10;91.00
7654;DHT22;3869;48.406;10.774;2022-08-01T11:12:06;25.90;90.90
7654;DHT22;3869;48.406;10.774;2022-08-01T11:15:17;25.80;91.00
7654;DHT22;3869;48.406;10.774;2022-08-01T11:17:58;25.60;91.40
7654;DHT22;3869;48.406;10.774;2022-08-01T11:20:29;25.60;91.80
7654;DHT22;3869;48.406;10.774;2022-08-01T11:23:26;25.50;91.90
7654;DHT22;3869;48.406;10.774;2022-08-01T11:26:20;25.40;92.00
7654;DHT22;3869;48.406;10.774;2022-08-01T11:29:13;25.30;92.40
7654;DHT22;3869;48.406;10.774;2022-08-01T11:31:50;25.30;92.50
7654;DHT22;3869;48.406;10.774;2022-08-01T11:34:52;25.40;92.60
7654;DHT22;3869;48.406;10.774;2022-08-01T11:37:24;25.40;92.90
7654;DHT22;3869;48.406;10.774;2022-08-01T11:40:16;25.40;92.90
7654;DHT22;3869;48.406;10.774;2022-08-01T11:42:46;25.40;92.80
7654;DHT22;3869;48.406;10.774;2022-08-01T11:45:16;25.40;92.70
7654;DHT22;3869;48.406;10.774;2022-08-01T11:47:46;25.40;92.70
7654;DHT22;3869;48.406;10.774;2022-08-01T11:50:34;25.40;92.40
7654;DHT22;3869;48.406;10.774;2022-08-01T11:53:04;25.30;92.10
7654;DHT22;3869;48.406;10.774;2022-08-01T11:55:33;25.30;92.50
7654;DHT22;3869;48.406;10.774;2022-08-01T11:58:03;25.40;92.40
7654;DHT22;3869;48.406;10.774;2022-08-01T12:00:33;25.50;92.70
7654;DHT22;3869;48.406;10.774;2022-08-01T12:03:03;25.40;92.40
7654;DHT22;3869;48.406;10.774;2022-08-01T12:05:35;25.40;92.90
7654;DHT22;3869;48.406;10.774;2022-08-01T12:08:09;25.40;92.60
7654;DHT22;3869;48.406;10.774;2022-08-01T12:10:37;25.40;93.00
7654;DHT22;3869;48.406;10.774;2022-08-01T12:13:15;25.60;93.50
7654;DHT22;3869;48.406;10.774;2022-08-01T12:15:44;25.80;92.50
7654;DHT22;3869;48.406;10.774;2022-08-01T12:18:13;26.00;92.60
7654;DHT22;3869;48.406;10.774;2022-08-01T12:20:44;26.10;92.60
7654;DHT22;3869;48.406;10.774;2022-08-01T12:23:22;26.10;92.50
7654;DHT22;3869;48.406;10.774;2022-08-01T12:25:51;26.10;92.30
7654;DHT22;3869;48.406;10.774;2022-08-01T12:28:20;26.10;92.30
7654;DHT22;3869;48.406;10.774;2022-08-01T12:30:49;26.10;92.30
7654;DHT22;3869;48.406;10.774;2022-08-01T12:33:19;26.20;92.80
7654;DHT22;3869;48.406;10.774;2022-08-01T12:35:50;26.30;92.30
7654;DHT22;3869;48.406;10.774;2022-08-01T12:38:21;26.40;92.10
7654;DHT22;3869;48.406;10.774;2022-08-01T12:40:51;26.70;92.80
7654;DHT22;3869;48.406;10.774;2022-08-01T12:43:22;26.80;92.40
7654;DHT22;3869;48.406;10.774;2022-08-01T12:45:56;27.00;92.50
7654;DHT22;3869;48.406;10.774;2022-08-01T12:48:26;27.30;91.60
7654;DHT22;3869;48.406;10.774;2022-08-01T12:50:58;27.40;91.70
7654;DHT22;3869;48.406;10.774;2022-08-01T12:53:28;27.40;89.40
7654;DHT22;3869;48.406;10.774;2022-08-01T12:56:07;27.40;90.00
7654;DHT22;3869;48.406;10.774;2022-08-01T12:58:36;27.40;90.00
7654;DHT22;3869;48.406;10.774;2022-08-01T13:01:05;27.40;90.20
7654;DHT22;3869;48.406;10.774;2022-08-01T13:03:34;27.50;91.20
7654;DHT22;3869;48.406;10.774;2022-08-01T13:06:11;27.50;90.30
7654;DHT22;3869;48.406;10.774;2022-08-01T13:08:42;27.50;89.60
7654;DHT22;3869;48.406;10.774;2022-08-01T13:11:11;27.30;88.90
7654;DHT22;3869;48.406;10.774;2022-08-01T13:13:44;27.40;89.00
7654;DHT22;3869;48.406;10.774;2022-08-01T13:16:14;27.30;87.80
7654;DHT22;3869;48.406;10.774;2022-08-01T13:19:03;27.10;87.50
7654;DHT22;3869;48.406;10.774;2022-08-01T13:21:33;26.90;88.00
7654;DHT22;3869;48.406;10.774;2022-08-01T13:24:24;26.70;87.50
7654;DHT22;3869;48.406;10.774;2022-08-01T13:26:54;26.60;87.70
7654;DHT22;3869;48.406;10.774;2022-08-01T13:29:32;26.50;87.90
7654;DHT22;3869;48.406;10.774;2022-08-01T13:32:12;26.40;88.30
7654;DHT22;3869;48.406;10.774;2022-08-01T13:35:01;26.30;89.00
7654;DHT22;3869;48.406;10.774;2022-08-01T13:37:31;26.30;89.30
7654;DHT22;3869;48.406;10.774;2022-08-01T13:39:59;26.20;90.20
7654;DHT22;3869;48.406;10.774;2022-08-01T13:42:27;26.20;90.40
7654;DHT22;3869;48.406;10.774;2022-08-01T13:44:56;26.10;90.60
7654;DHT22;3869;48.406;10.774;2022-08-01T13:47:24;26.10;91.00
7654;DHT22;3869;48.406;10.774;2022-08-01T13:49:57;25.90;91.70
7654;DHT22;3869;48.406;10.774;2022-08-01T13:52:28;25.60;93.00
7654;DHT22;3869;48.406;10.774;2022-08-01T13:54:57;25.20;94.20
7654;DHT22;3869;48.406;10.774;2022-08-01T13:57:25;24.60;94.90
7654;DHT22;3869;48.406;10.774;2022-08-01T14:00:03;24.10;96.30
7654;DHT22;3869;48.406;10.774;2022-08-01T14:02:32;23.70;96.60
7654;DHT22;3869;48.406;10.774;2022-08-01T14:05:00;23.30;97.40
7654;DHT22;3869;48.406;10.774;2022-08-01T14:07:28;22.90;98.80
7654;DHT22;3869;48.406;10.774;2022-08-01T14:09:58;22.50;99.60
7654;DHT22;3869;48.406;10.774;2022-08-01T14:12:45;22.30;99.90
7654;DHT22;3869;48.406;10.774;2022-08-01T14:15:13;22.10;99.90
7654;DHT22;3869;48.406;10.774;2022-08-01T14:18:01;21.80;99.90
7654;DHT22;3869;48.406;10.774;2022-08-01T14:20:31;21.40;99.90
7654;DHT22;3869;48.406;10.774;2022-08-01T14:22:59;21.10;99.90
7654;DHT22;3869;48.406;10.774;2022-08-01T14:25:29;21.00;99.90
7654;DHT22;3869;48.406;10.774;2022-08-01T14:28:17;20.90;99.90
7654;DHT22;3869;48.406;10.774;2022-08-01T14:30:45;20.90;99.90
7654;DHT22;3869;48.406;10.774;2022-08-01T14:33:13;21.00;99.90
7654;DHT22;3869;48.406;10.774;2022-08-01T14:35:41;21.00;99.90
7654;DHT22;3869;48.406;10.774;2022-08-01T14:38:29;21.10;99.90
7654;DHT22;3869;48.406;10.774;2022-08-01T14:41:01;21.20;99.90
7654;DHT22;3869;48.406;10.774;2022-08-01T14:43:30;21.20;99.90
7654;DHT22;3869;48.406;10.774;2022-08-01T14:46:00;21.10;99.90
7654;DHT22;3869;48.406;10.774;2022-08-01T14:48:30;21.10;99.90
7654;DHT22;3869;48.406;10.774;2022-08-01T14:50:58;21.00;99.90
7654;DHT22;3869;48.406;10.774;2022-08-01T14:53:29;21.00;99.90
7654;DHT22;3869;48.406;10.774;2022-08-01T14:56:03;21.00;99.90
7654;DHT22;3869;48.406;10.774;2022-08-01T14:58:31;21.00;99.90
7654;DHT22;3869;48.406;10.774;2022-08-01T15:01:00;21.20;99.90
7654;DHT22;3869;48.406;10.774;2022-08-01T15:03:28;21.20;99.90
7654;DHT22;3869;48.406;10.774;2022-08-01T15:05:56;21.30;99.90
7654;DHT22;3869;48.406;10.774;2022-08-01T15:08:24;21.50;99.90
7654;DHT22;3869;48.406;10.774;2022-08-01T15:10:53;21.70;99.90
7654;DHT22;3869;48.406;10.774;2022-08-01T15:13:22;21.80;99.90
7654;DHT22;3869;48.406;10.774;2022-08-01T15:15:50;22.00;99.90
7654;DHT22;3869;48.406;10.774;2022-08-01T15:18:18;22.10;99.90
7654;DHT22;3869;48.406;10.774;2022-08-01T15:20:46;22.20;99.90
7654;DHT22;3869;48.406;10.774;2022-08-01T15:23:14;22.20;99.90
7654;DHT22;3869;48.406;10.774;2022-08-01T15:25:42;22.30;99.90
7654;DHT22;3869;48.406;10.774;2022-08-01T15:28:10;22.40;99.90
7654;DHT22;3869;48.406;10.774;2022-08-01T15:30:40;22.50;99.90
7654;DHT22;3869;48.406;10.774;2022-08-01T15:33:08;22.50;99.90
7654;DHT22;3869;48.406;10.774;2022-08-01T15:35:36;22.40;99.90
7654;DHT22;3869;48.406;10.774;2022-08-01T15:38:04;22.40;99.90
7654;DHT22;3869;48.406;10.774;2022-08-01T15:40:32;22.50;99.90
7654;DHT22;3869;48.406;10.774;2022-08-01T15:43:01;22.40;99.90
7654;DHT22;3869;48.406;10.774;2022-08-01T15:45:29;22.40;99.90
7654;DHT22;3869;48.406;10.774;2022-08-01T15:48:16;22.40;99.90
7654;DHT22;3869;48.406;10.774;2022-08-01T15:50:44;22.50;99.90
7654;DHT22;3869;48.406;10.774;2022-08-01T15:53:12;22.60;99.90
7654;DHT22;3869;48.406;10.774;2022-08-01T15:55:40;22.70;99.90
7654;DHT22;3869;48.406;10.774;2022-08-01T15:58:18;22.80;99.90
7654;DHT22;3869;48.406;10.774;2022-08-01T16:00:46;22.90;99.90
7654;DHT22;3869;48.406;10.774;2022-08-01T16:03:14;23.00;99.90
7654;DHT22;3869;48.406;10.774;2022-08-01T16:05:43;23.00;99.90
7654;DHT22;3869;48.406;10.774;2022-08-01T16:08:12;23.00;99.90
7654;DHT22;3869;48.406;10.774;2022-08-01T16:10:40;23.00;99.90
7654;DHT22;3869;48.406;10.774;2022-08-01T16:13:08;23.00;99.90
7654;DHT22;3869;48.406;10.774;2022-08-01T16:15:37;23.10;99.90